sensor_id;sensor_type;location;lat;lon;timestamp;P1;durP1;ratioP1;P2;durP2;ratioP2
65636;SDS011;52327;42.622;23.316;2024-01-16T00:02:12;2.88;;;2.67;;
65636;SDS011;52327;42.622;23.316;2024-01-16T00:04:38;4.95;;;3.00;;
65636;SDS011;52327;42.622;23.316;2024-01-16T00:07:04;3.47;;;2.83;;
65636;SDS011;52327;42.622;23.316;2024-01-16T00:09:32;5.43;;;2.85;;
65636;SDS011;52327;42.622;23.316;2024-01-16T00:11:59;4.15;;;3.47;;
65636;SDS011;52327;42.622;23.316;2024-01-16T00:14:25;2.88;;;2.33;;
65636;SDS011;52327;42.622;23.316;2024-01-16T00:16:51;6.97;;;3.28;;
65636;SDS011;52327;42.622;23.316;2024-01-16T00:19:16;3.63;;;2.97;;
65636;SDS011;52327;42.622;23.316;2024-01-16T00:21:42;1.40;;;1.38;;
65636;SDS011;52327;42.622;23.316;2024-01-16T00:24:10;7.22;;;4.50;;
65636;SDS011;52327;42.622;23.316;2024-01-16T00:26:35;4.93;;;3.70;;
65636;SDS011;52327;42.622;23.316;2024-01-16T00:29:01;4.15;;;2.13;;
65636;SDS011;52327;42.622;23.316;2024-01-16T00:31:26;1.73;;;1.63;;
65636;SDS011;52327;42.622;23.316;2024-01-16T00:33:52;1.25;;;1.08;;
65636;SDS011;52327;42.622;23.316;2024-01-16T00:53:13;5.72;;;3.47;;
65636;SDS011;52327;42.622;23.316;2024-01-16T00:55:38;5.25;;;3.97;;
65636;SDS011;52327;42.622;23.316;2024-01-16T00:58:04;2.95;;;2.67;;
65636;SDS011;52327;42.622;23.316;2024-01-16T01:00:30;6.75;;;3.95;;
65636;SDS011;52327;42.622;23.316;2024-01-16T01:02:56;7.47;;;3.13;;
65636;SDS011;52327;42.622;23.316;2024-01-16T01:05:23;1.27;;;1.17;;
65636;SDS011;52327;42.622;23.316;2024-01-16T01:07:53;3.03;;;2.40;;
65636;SDS011;52327;42.622;23.316;2024-01-16T01:10:20;10.52;;;4.50;;
65636;SDS011;52327;42.622;23.316;2024-01-16T01:12:45;2.13;;;1.95;;
65636;SDS011;52327;42.622;23.316;2024-01-16T01:15:11;4.30;;;3.17;;
65636;SDS011;52327;42.622;23.316;2024-01-16T01:17:37;4.18;;;2.20;;
65636;SDS011;52327;42.622;23.316;2024-01-16T01:20:02;3.22;;;2.97;;
65636;SDS011;52327;42.622;23.316;2024-01-16T01:22:28;7.20;;;3.13;;
65636;SDS011;52327;42.622;23.316;2024-01-16T01:24:53;7.30;;;2.78;;
65636;SDS011;52327;42.622;23.316;2024-01-16T01:27:19;3.85;;;2.67;;
65636;SDS011;52327;42.622;23.316;2024-01-16T01:29:44;1.90;;;1.70;;
65636;SDS011;52327;42.622;23.316;2024-01-16T01:32:10;6.80;;;2.78;;
65636;SDS011;52327;42.622;23.316;2024-01-16T01:34:35;8.75;;;3.35;;
65636;SDS011;52327;42.622;23.316;2024-01-16T01:37:01;4.30;;;2.97;;
65636;SDS011;52327;42.622;23.316;2024-01-16T01:39:26;2.78;;;2.38;;
65636;SDS011;52327;42.622;23.316;2024-01-16T01:41:52;2.75;;;1.70;;
65636;SDS011;52327;42.622;23.316;2024-01-16T01:44:17;3.50;;;2.30;;
65636;SDS011;52327;42.622;23.316;2024-01-16T01:46:42;7.10;;;2.47;;
65636;SDS011;52327;42.622;23.316;2024-01-16T01:49:09;3.47;;;2.15;;
65636;SDS011;52327;42.622;23.316;2024-01-16T01:51:37;4.43;;;2.03;;
65636;SDS011;52327;42.622;23.316;2024-01-16T01:54:02;2.25;;;1.42;;
65636;SDS011;52327;42.622;23.316;2024-01-16T01:56:28;3.20;;;1.70;;
65636;SDS011;52327;42.622;23.316;2024-01-16T01:58:54;5.50;;;2.35;;
65636;SDS011;52327;42.622;23.316;2024-01-16T02:01:22;2.72;;;1.45;;
65636;SDS011;52327;42.622;23.316;2024-01-16T02:03:49;3.35;;;2.15;;
65636;SDS011;52327;42.622;23.316;2024-01-16T02:06:16;2.22;;;2.03;;
65636;SDS011;52327;42.622;23.316;2024-01-16T02:08:41;1.00;;;0.98;;
65636;SDS011;52327;42.622;23.316;2024-01-16T02:11:07;1.63;;;1.25;;
65636;SDS011;52327;42.622;23.316;2024-01-16T02:13:33;3.55;;;1.15;;
65636;SDS011;52327;42.622;23.316;2024-01-16T02:15:59;1.70;;;1.60;;
65636;SDS011;52327;42.622;23.316;2024-01-16T02:18:24;1.30;;;1.13;;
65636;SDS011;52327;42.622;23.316;2024-01-16T02:20:50;2.40;;;1.60;;
65636;SDS011;52327;42.622;23.316;2024-01-16T02:23:15;0.35;;;0.35;;
65636;SDS011;52327;42.622;23.316;2024-01-16T02:25:51;2.13;;;1.50;;
65636;SDS011;52327;42.622;23.316;2024-01-16T02:28:16;0.80;;;0.80;;
65636;SDS011;52327;42.622;23.316;2024-01-16T02:30:42;0.85;;;0.70;;
65636;SDS011;52327;42.622;23.316;2024-01-16T02:33:07;2.05;;;1.30;;
65636;SDS011;52327;42.622;23.316;2024-01-16T02:35:33;0.88;;;0.80;;
65636;SDS011;52327;42.622;23.316;2024-01-16T02:37:58;2.00;;;0.85;;
65636;SDS011;52327;42.622;23.316;2024-01-16T02:40:25;2.80;;;1.75;;
65636;SDS011;52327;42.622;23.316;2024-01-16T02:42:51;2.00;;;1.13;;
65636;SDS011;52327;42.622;23.316;2024-01-16T02:45:16;1.70;;;1.23;;
65636;SDS011;52327;42.622;23.316;2024-01-16T02:47:42;0.80;;;0.80;;
65636;SDS011;52327;42.622;23.316;2024-01-16T02:50:08;1.02;;;0.90;;
65636;SDS011;52327;42.622;23.316;2024-01-16T02:52:34;2.95;;;1.48;;
65636;SDS011;52327;42.622;23.316;2024-01-16T02:55:00;1.45;;;0.70;;
65636;SDS011;52327;42.622;23.316;2024-01-16T02:57:26;1.27;;;1.00;;
65636;SDS011;52327;42.622;23.316;2024-01-16T02:59:51;1.38;;;0.90;;
65636;SDS011;52327;42.622;23.316;2024-01-16T03:02:16;0.80;;;0.63;;
65636;SDS011;52327;42.622;23.316;2024-01-16T03:04:42;0.73;;;0.63;;
65636;SDS011;52327;42.622;23.316;2024-01-16T03:07:07;2.70;;;2.50;;
65636;SDS011;52327;42.622;23.316;2024-01-16T03:09:33;2.67;;;2.13;;
65636;SDS011;52327;42.622;23.316;2024-01-16T03:11:59;1.58;;;0.88;;
65636;SDS011;52327;42.622;23.316;2024-01-16T03:14:25;5.30;;;2.78;;
65636;SDS011;52327;42.622;23.316;2024-01-16T03:16:50;1.40;;;1.30;;
65636;SDS011;52327;42.622;23.316;2024-01-16T03:19:15;2.67;;;1.98;;
65636;SDS011;52327;42.622;23.316;2024-01-16T03:21:41;3.50;;;3.17;;
65636;SDS011;52327;42.622;23.316;2024-01-16T03:24:07;1.10;;;1.08;;
65636;SDS011;52327;42.622;23.316;2024-01-16T03:26:35;8.90;;;2.97;;
65636;SDS011;52327;42.622;23.316;2024-01-16T03:29:02;9.23;;;3.08;;
65636;SDS011;52327;42.622;23.316;2024-01-16T03:31:28;3.08;;;2.10;;
65636;SDS011;52327;42.622;23.316;2024-01-16T03:33:53;3.22;;;2.30;;
65636;SDS011;52327;42.622;23.316;2024-01-16T03:36:19;0.50;;;0.50;;
65636;SDS011;52327;42.622;23.316;2024-01-16T03:38:44;12.70;;;2.63;;
65636;SDS011;52327;42.622;23.316;2024-01-16T03:41:13;1.17;;;1.10;;
65636;SDS011;52327;42.622;23.316;2024-01-16T03:43:39;1.73;;;1.52;;
65636;SDS011;52327;42.622;23.316;2024-01-16T03:46:05;0.60;;;0.60;;
65636;SDS011;52327;42.622;23.316;2024-01-16T03:48:30;1.52;;;0.95;;
65636;SDS011;52327;42.622;23.316;2024-01-16T03:50:56;6.28;;;1.08;;
65636;SDS011;52327;42.622;23.316;2024-01-16T03:53:21;5.68;;;1.98;;
65636;SDS011;52327;42.622;23.316;2024-01-16T03:55:47;1.70;;;1.60;;
65636;SDS011;52327;42.622;23.316;2024-01-16T03:58:13;5.68;;;1.77;;
65636;SDS011;52327;42.622;23.316;2024-01-16T04:00:39;1.00;;;0.75;;
65636;SDS011;52327;42.622;23.316;2024-01-16T04:03:04;0.88;;;0.88;;
65636;SDS011;52327;42.622;23.316;2024-01-16T04:05:30;0.50;;;0.50;;
65636;SDS011;52327;42.622;23.316;2024-01-16T04:07:56;0.60;;;0.60;;
65636;SDS011;52327;42.622;23.316;2024-01-16T04:10:22;1.00;;;1.00;;
65636;SDS011;52327;42.622;23.316;2024-01-16T04:12:47;2.25;;;2.15;;
65636;SDS011;52327;42.622;23.316;2024-01-16T04:15:13;1.52;;;1.30;;
65636;SDS011;52327;42.622;23.316;2024-01-16T04:17:38;0.65;;;0.65;;
65636;SDS011;52327;42.622;23.316;2024-01-16T04:20:04;1.63;;;1.52;;
65636;SDS011;52327;42.622;23.316;2024-01-16T04:22:32;0.77;;;0.77;;
65636;SDS011;52327;42.622;23.316;2024-01-16T04:24:57;0.80;;;0.47;;
65636;SDS011;52327;42.622;23.316;2024-01-16T04:27:23;1.30;;;1.15;;
65636;SDS011;52327;42.622;23.316;2024-01-16T04:29:50;0.70;;;0.70;;
65636;SDS011;52327;42.622;23.316;2024-01-16T04:32:18;0.85;;;0.85;;
65636;SDS011;52327;42.622;23.316;2024-01-16T04:34:44;2.28;;;1.95;;
65636;SDS011;52327;42.622;23.316;2024-01-16T04:37:09;0.77;;;0.77;;
65636;SDS011;52327;42.622;23.316;2024-01-16T04:39:35;0.68;;;0.68;;
65636;SDS011;52327;42.622;23.316;2024-01-16T04:42:00;1.52;;;1.42;;
65636;SDS011;52327;42.622;23.316;2024-01-16T04:44:25;1.85;;;1.75;;
65636;SDS011;52327;42.622;23.316;2024-01-16T04:46:51;0.88;;;0.88;;
65636;SDS011;52327;42.622;23.316;2024-01-16T04:49:17;2.15;;;1.50;;
65636;SDS011;52327;42.622;23.316;2024-01-16T04:51:43;1.23;;;0.70;;
65636;SDS011;52327;42.622;23.316;2024-01-16T04:54:08;1.13;;;1.08;;
65636;SDS011;52327;42.622;23.316;2024-01-16T04:56:35;1.27;;;1.08;;
65636;SDS011;52327;42.622;23.316;2024-01-16T04:59:00;1.30;;;1.25;;
65636;SDS011;52327;42.622;23.316;2024-01-16T05:01:26;0.45;;;0.45;;
65636;SDS011;52327;42.622;23.316;2024-01-16T05:03:51;1.25;;;0.80;;
65636;SDS011;52327;42.622;23.316;2024-01-16T05:06:17;1.10;;;1.00;;
65636;SDS011;52327;42.622;23.316;2024-01-16T05:08:42;0.40;;;0.40;;
65636;SDS011;52327;42.622;23.316;2024-01-16T05:11:08;0.40;;;0.40;;
65636;SDS011;52327;42.622;23.316;2024-01-16T05:13:34;0.52;;;0.52;;
65636;SDS011;52327;42.622;23.316;2024-01-16T05:15:59;0.80;;;0.80;;
65636;SDS011;52327;42.622;23.316;2024-01-16T05:18:25;0.90;;;0.90;;
65636;SDS011;52327;42.622;23.316;2024-01-16T05:20:50;0.77;;;0.52;;
65636;SDS011;52327;42.622;23.316;2024-01-16T05:23:16;1.05;;;1.05;;
65636;SDS011;52327;42.622;23.316;2024-01-16T05:25:42;0.20;;;0.20;;
65636;SDS011;52327;42.622;23.316;2024-01-16T05:28:08;0.68;;;0.68;;
65636;SDS011;52327;42.622;23.316;2024-01-16T05:30:33;1.65;;;1.05;;
65636;SDS011;52327;42.622;23.316;2024-01-16T05:32:59;1.33;;;1.25;;
65636;SDS011;52327;42.622;23.316;2024-01-16T05:35:28;1.75;;;1.35;;
65636;SDS011;52327;42.622;23.316;2024-01-16T05:37:54;1.50;;;1.40;;
65636;SDS011;52327;42.622;23.316;2024-01-16T05:40:20;1.23;;;1.10;;
65636;SDS011;52327;42.622;23.316;2024-01-16T05:42:47;0.43;;;0.35;;
65636;SDS011;52327;42.622;23.316;2024-01-16T05:45:13;0.35;;;0.35;;
65636;SDS011;52327;42.622;23.316;2024-01-16T05:47:39;0.93;;;0.93;;
65636;SDS011;52327;42.622;23.316;2024-01-16T05:50:05;1.08;;;0.70;;
65636;SDS011;52327;42.622;23.316;2024-01-16T05:52:31;0.50;;;0.50;;
65636;SDS011;52327;42.622;23.316;2024-01-16T05:54:56;0.40;;;0.40;;
65636;SDS011;52327;42.622;23.316;2024-01-16T05:57:24;0.63;;;0.63;;
65636;SDS011;52327;42.622;23.316;2024-01-16T05:59:50;0.40;;;0.40;;
65636;SDS011;52327;42.622;23.316;2024-01-16T06:02:15;1.13;;;0.85;;
65636;SDS011;52327;42.622;23.316;2024-01-16T06:04:41;0.60;;;0.60;;
65636;SDS011;52327;42.622;23.316;2024-01-16T06:07:09;0.25;;;0.25;;
65636;SDS011;52327;42.622;23.316;2024-01-16T06:09:43;0.45;;;0.45;;
65636;SDS011;52327;42.622;23.316;2024-01-16T06:12:08;0.60;;;0.60;;
65636;SDS011;52327;42.622;23.316;2024-01-16T06:14:37;3.05;;;1.73;;
65636;SDS011;52327;42.622;23.316;2024-01-16T06:17:03;0.40;;;0.40;;
65636;SDS011;52327;42.622;23.316;2024-01-16T06:19:30;0.73;;;0.73;;
65636;SDS011;52327;42.622;23.316;2024-01-16T06:21:56;0.40;;;0.40;;
65636;SDS011;52327;42.622;23.316;2024-01-16T06:24:21;1.75;;;0.50;;
65636;SDS011;52327;42.622;23.316;2024-01-16T06:26:47;0.57;;;0.57;;
65636;SDS011;52327;42.622;23.316;2024-01-16T06:29:13;1.55;;;0.93;;
65636;SDS011;52327;42.622;23.316;2024-01-16T06:31:38;0.30;;;0.30;;
65636;SDS011;52327;42.622;23.316;2024-01-16T06:34:03;0.25;;;0.25;;
65636;SDS011;52327;42.622;23.316;2024-01-16T06:36:29;0.90;;;0.47;;
65636;SDS011;52327;42.622;23.316;2024-01-16T06:38:54;0.50;;;0.50;;
65636;SDS011;52327;42.622;23.316;2024-01-16T06:41:20;0.30;;;0.30;;
65636;SDS011;52327;42.622;23.316;2024-01-16T06:43:46;0.25;;;0.25;;
65636;SDS011;52327;42.622;23.316;2024-01-16T06:46:11;0.30;;;0.30;;
65636;SDS011;52327;42.622;23.316;2024-01-16T06:48:37;0.40;;;0.40;;
65636;SDS011;52327;42.622;23.316;2024-01-16T06:51:03;0.20;;;0.20;;
65636;SDS011;52327;42.622;23.316;2024-01-16T06:53:29;0.30;;;0.30;;
65636;SDS011;52327;42.622;23.316;2024-01-16T06:55:54;0.38;;;0.38;;
65636;SDS011;52327;42.622;23.316;2024-01-16T06:58:20;0.45;;;0.25;;
65636;SDS011;52327;42.622;23.316;2024-01-16T07:00:46;1.90;;;0.47;;
65636;SDS011;52327;42.622;23.316;2024-01-16T07:03:12;0.32;;;0.32;;
65636;SDS011;52327;42.622;23.316;2024-01-16T07:05:38;1.38;;;1.30;;
65636;SDS011;52327;42.622;23.316;2024-01-16T07:08:05;0.30;;;0.30;;
65636;SDS011;52327;42.622;23.316;2024-01-16T07:10:31;0.30;;;0.30;;
65636;SDS011;52327;42.622;23.316;2024-01-16T07:12:57;0.50;;;0.50;;
65636;SDS011;52327;42.622;23.316;2024-01-16T07:15:22;0.50;;;0.50;;
65636;SDS011;52327;42.622;23.316;2024-01-16T07:17:48;0.52;;;0.52;;
65636;SDS011;52327;42.622;23.316;2024-01-16T07:20:13;0.60;;;0.60;;
65636;SDS011;52327;42.622;23.316;2024-01-16T07:22:39;0.60;;;0.60;;
65636;SDS011;52327;42.622;23.316;2024-01-16T07:25:05;0.47;;;0.45;;
65636;SDS011;52327;42.622;23.316;2024-01-16T07:27:31;0.55;;;0.55;;
65636;SDS011;52327;42.622;23.316;2024-01-16T07:29:56;0.20;;;0.20;;
65636;SDS011;52327;42.622;23.316;2024-01-16T07:32:22;0.28;;;0.28;;
65636;SDS011;52327;42.622;23.316;2024-01-16T07:34:47;0.40;;;0.40;;
65636;SDS011;52327;42.622;23.316;2024-01-16T07:37:13;0.32;;;0.32;;
65636;SDS011;52327;42.622;23.316;2024-01-16T07:39:38;0.30;;;0.30;;
65636;SDS011;52327;42.622;23.316;2024-01-16T07:42:07;0.30;;;0.30;;
65636;SDS011;52327;42.622;23.316;2024-01-16T07:44:33;0.38;;;0.38;;
65636;SDS011;52327;42.622;23.316;2024-01-16T07:46:58;0.20;;;0.20;;
65636;SDS011;52327;42.622;23.316;2024-01-16T07:49:24;0.20;;;0.20;;
65636;SDS011;52327;42.622;23.316;2024-01-16T07:51:49;0.40;;;0.40;;
65636;SDS011;52327;42.622;23.316;2024-01-16T07:54:14;0.50;;;0.50;;
65636;SDS011;52327;42.622;23.316;2024-01-16T07:56:40;0.75;;;0.47;;
65636;SDS011;52327;42.622;23.316;2024-01-16T07:59:05;0.63;;;0.63;;
65636;SDS011;52327;42.622;23.316;2024-01-16T08:01:31;0.30;;;0.30;;
65636;SDS011;52327;42.622;23.316;2024-01-16T08:03:57;0.20;;;0.20;;
65636;SDS011;52327;42.622;23.316;2024-01-16T08:06:23;0.30;;;0.30;;
65636;SDS011;52327;42.622;23.316;2024-01-16T08:08:49;0.70;;;0.43;;
65636;SDS011;52327;42.622;23.316;2024-01-16T08:11:14;0.68;;;0.40;;
65636;SDS011;52327;42.622;23.316;2024-01-16T08:13:40;0.20;;;0.20;;
65636;SDS011;52327;42.622;23.316;2024-01-16T08:16:05;0.47;;;0.47;;
65636;SDS011;52327;42.622;23.316;2024-01-16T08:18:31;0.30;;;0.30;;
65636;SDS011;52327;42.622;23.316;2024-01-16T08:20:57;0.32;;;0.32;;
65636;SDS011;52327;42.622;23.316;2024-01-16T08:23:22;0.30;;;0.30;;
65636;SDS011;52327;42.622;23.316;2024-01-16T08:25:48;0.30;;;0.30;;
65636;SDS011;52327;42.622;23.316;2024-01-16T08:28:14;0.40;;;0.40;;
65636;SDS011;52327;42.622;23.316;2024-01-16T08:30:40;0.40;;;0.40;;
65636;SDS011;52327;42.622;23.316;2024-01-16T08:33:06;0.30;;;0.30;;
65636;SDS011;52327;42.622;23.316;2024-01-16T08:35:32;0.40;;;0.40;;
65636;SDS011;52327;42.622;23.316;2024-01-16T08:37:58;0.45;;;0.45;;
65636;SDS011;52327;42.622;23.316;2024-01-16T08:40:24;0.55;;;0.55;;
65636;SDS011;52327;42.622;23.316;2024-01-16T08:42:49;0.40;;;0.40;;
65636;SDS011;52327;42.622;23.316;2024-01-16T08:45:21;0.20;;;0.20;;
65636;SDS011;52327;42.622;23.316;2024-01-16T08:47:46;0.73;;;0.50;;
65636;SDS011;52327;42.622;23.316;2024-01-16T08:50:12;0.32;;;0.32;;
65636;SDS011;52327;42.622;23.316;2024-01-16T08:52:37;0.38;;;0.38;;
65636;SDS011;52327;42.622;23.316;2024-01-16T08:55:03;0.50;;;0.50;;
65636;SDS011;52327;42.622;23.316;2024-01-16T08:57:29;0.50;;;0.50;;
65636;SDS011;52327;42.622;23.316;2024-01-16T08:59:54;0.10;;;0.10;;
65636;SDS011;52327;42.622;23.316;2024-01-16T09:02:20;1.40;;;0.77;;
65636;SDS011;52327;42.622;23.316;2024-01-16T09:04:46;0.28;;;0.28;;
65636;SDS011;52327;42.622;23.316;2024-01-16T09:07:12;0.35;;;0.35;;
65636;SDS011;52327;42.622;23.316;2024-01-16T09:09:41;0.30;;;0.30;;
65636;SDS011;52327;42.622;23.316;2024-01-16T09:12:07;0.60;;;0.60;;
65636;SDS011;52327;42.622;23.316;2024-01-16T09:14:36;0.50;;;0.50;;
65636;SDS011;52327;42.622;23.316;2024-01-16T09:17:01;0.70;;;0.70;;
65636;SDS011;52327;42.622;23.316;2024-01-16T09:19:28;0.95;;;0.95;;
65636;SDS011;52327;42.622;23.316;2024-01-16T09:21:54;1.40;;;0.82;;
65636;SDS011;52327;42.622;23.316;2024-01-16T09:24:20;1.23;;;0.63;;
65636;SDS011;52327;42.622;23.316;2024-01-16T09:26:45;0.98;;;0.50;;
65636;SDS011;52327;42.622;23.316;2024-01-16T09:29:10;0.20;;;0.20;;
65636;SDS011;52327;42.622;23.316;2024-01-16T09:31:36;0.25;;;0.25;;
65636;SDS011;52327;42.622;23.316;2024-01-16T09:34:02;1.25;;;1.00;;
65636;SDS011;52327;42.622;23.316;2024-01-16T09:36:28;1.63;;;1.35;;
65636;SDS011;52327;42.622;23.316;2024-01-16T09:38:54;1.33;;;1.25;;
65636;SDS011;52327;42.622;23.316;2024-01-16T09:41:19;0.20;;;0.20;;
65636;SDS011;52327;42.622;23.316;2024-01-16T09:43:45;0.75;;;0.75;;
65636;SDS011;52327;42.622;23.316;2024-01-16T09:46:12;0.30;;;0.30;;
65636;SDS011;52327;42.622;23.316;2024-01-16T09:48:40;0.20;;;0.20;;
65636;SDS011;52327;42.622;23.316;2024-01-16T09:51:09;0.77;;;0.77;;
65636;SDS011;52327;42.622;23.316;2024-01-16T09:53:34;0.77;;;0.77;;
65636;SDS011;52327;42.622;23.316;2024-01-16T09:56:01;0.30;;;0.30;;
65636;SDS011;52327;42.622;23.316;2024-01-16T09:58:28;0.30;;;0.30;;
65636;SDS011;52327;42.622;23.316;2024-01-16T10:00:59;0.80;;;0.70;;
65636;SDS011;52327;42.622;23.316;2024-01-16T10:03:24;0.50;;;0.50;;
65636;SDS011;52327;42.622;23.316;2024-01-16T10:05:51;0.30;;;0.30;;
65636;SDS011;52327;42.622;23.316;2024-01-16T10:08:17;0.43;;;0.43;;
65636;SDS011;52327;42.622;23.316;2024-01-16T10:10:46;0.40;;;0.40;;
65636;SDS011;52327;42.622;23.316;2024-01-16T10:13:12;0.43;;;0.43;;
65636;SDS011;52327;42.622;23.316;2024-01-16T10:15:39;0.77;;;0.77;;
65636;SDS011;52327;42.622;23.316;2024-01-16T10:18:05;0.40;;;0.40;;
65636;SDS011;52327;42.622;23.316;2024-01-16T10:20:38;0.20;;;0.20;;
65636;SDS011;52327;42.622;23.316;2024-01-16T10:23:04;0.50;;;0.50;;
65636;SDS011;52327;42.622;23.316;2024-01-16T10:25:30;0.90;;;0.90;;
65636;SDS011;52327;42.622;23.316;2024-01-16T10:28:02;0.55;;;0.55;;
65636;SDS011;52327;42.622;23.316;2024-01-16T10:30:29;0.60;;;0.60;;
65636;SDS011;52327;42.622;23.316;2024-01-16T10:32:55;0.47;;;0.47;;
65636;SDS011;52327;42.622;23.316;2024-01-16T10:35:22;0.38;;;0.38;;
65636;SDS011;52327;42.622;23.316;2024-01-16T10:37:51;2.17;;;0.60;;
65636;SDS011;52327;42.622;23.316;2024-01-16T10:40:22;0.40;;;0.40;;
65636;SDS011;52327;42.622;23.316;2024-01-16T10:45:23;0.30;;;0.30;;
65636;SDS011;52327;42.622;23.316;2024-01-16T10:48:10;0.68;;;0.52;;
65636;SDS011;52327;42.622;23.316;2024-01-16T10:50:35;0.22;;;0.22;;
65636;SDS011;52327;42.622;23.316;2024-01-16T10:53:05;0.38;;;0.38;;
65636;SDS011;52327;42.622;23.316;2024-01-16T10:55:34;0.88;;;0.82;;
65636;SDS011;52327;42.622;23.316;2024-01-16T10:58:08;2.30;;;0.70;;
65636;SDS011;52327;42.622;23.316;2024-01-16T11:00:35;0.63;;;0.63;;
65636;SDS011;52327;42.622;23.316;2024-01-16T11:03:05;0.70;;;0.70;;
65636;SDS011;52327;42.622;23.316;2024-01-16T11:05:35;0.45;;;0.40;;
65636;SDS011;52327;42.622;23.316;2024-01-16T11:08:02;0.32;;;0.32;;
65636;SDS011;52327;42.622;23.316;2024-01-16T11:10:29;0.70;;;0.70;;
65636;SDS011;52327;42.622;23.316;2024-01-16T11:12:56;2.05;;;1.08;;
65636;SDS011;52327;42.622;23.316;2024-01-16T11:15:25;0.50;;;0.50;;
65636;SDS011;52327;42.622;23.316;2024-01-16T11:17:53;1.38;;;1.27;;
65636;SDS011;52327;42.622;23.316;2024-01-16T11:20:23;0.40;;;0.40;;
65636;SDS011;52327;42.622;23.316;2024-01-16T11:22:49;0.77;;;0.77;;
65636;SDS011;52327;42.622;23.316;2024-01-16T11:25:16;0.52;;;0.52;;
65636;SDS011;52327;42.622;23.316;2024-01-16T11:27:43;0.28;;;0.28;;
65636;SDS011;52327;42.622;23.316;2024-01-16T11:30:13;0.40;;;0.40;;
65636;SDS011;52327;42.622;23.316;2024-01-16T11:32:56;0.38;;;0.38;;
65636;SDS011;52327;42.622;23.316;2024-01-16T11:35:31;0.52;;;0.52;;
65636;SDS011;52327;42.622;23.316;2024-01-16T11:38:20;0.65;;;0.65;;
65636;SDS011;52327;42.622;23.316;2024-01-16T11:40:46;0.47;;;0.47;;
65636;SDS011;52327;42.622;23.316;2024-01-16T11:45:57;0.30;;;0.30;;
65636;SDS011;52327;42.622;23.316;2024-01-16T11:48:24;0.88;;;0.60;;
65636;SDS011;52327;42.622;23.316;2024-01-16T11:50:50;0.50;;;0.50;;
65636;SDS011;52327;42.622;23.316;2024-01-16T12:01:35;0.60;;;0.60;;
65636;SDS011;52327;42.622;23.316;2024-01-16T12:04:01;3.67;;;0.93;;
65636;SDS011;52327;42.622;23.316;2024-01-16T12:06:28;0.20;;;0.20;;
65636;SDS011;52327;42.622;23.316;2024-01-16T12:08:54;0.45;;;0.45;;
65636;SDS011;52327;42.622;23.316;2024-01-16T12:11:19;0.30;;;0.30;;
65636;SDS011;52327;42.622;23.316;2024-01-16T12:14:00;0.50;;;0.50;;
65636;SDS011;52327;42.622;23.316;2024-01-16T12:16:26;0.88;;;0.85;;
65636;SDS011;52327;42.622;23.316;2024-01-16T12:19:03;0.40;;;0.40;;
65636;SDS011;52327;42.622;23.316;2024-01-16T12:24:06;2.83;;;1.83;;
65636;SDS011;52327;42.622;23.316;2024-01-16T12:26:31;1.75;;;1.15;;
65636;SDS011;52327;42.622;23.316;2024-01-16T12:28:57;0.20;;;0.20;;
65636;SDS011;52327;42.622;23.316;2024-01-16T12:31:23;1.08;;;0.90;;
65636;SDS011;52327;42.622;23.316;2024-01-16T12:33:50;1.45;;;1.00;;
65636;SDS011;52327;42.622;23.316;2024-01-16T12:36:16;0.47;;;0.47;;
65636;SDS011;52327;42.622;23.316;2024-01-16T12:38:42;0.40;;;0.40;;
65636;SDS011;52327;42.622;23.316;2024-01-16T12:41:08;0.25;;;0.25;;
65636;SDS011;52327;42.622;23.316;2024-01-16T12:43:35;0.52;;;0.52;;
65636;SDS011;52327;42.622;23.316;2024-01-16T12:46:02;1.60;;;0.85;;
65636;SDS011;52327;42.622;23.316;2024-01-16T12:48:28;1.42;;;1.33;;
65636;SDS011;52327;42.622;23.316;2024-01-16T12:51:03;0.65;;;0.65;;
65636;SDS011;52327;42.622;23.316;2024-01-16T12:53:34;1.45;;;0.80;;
65636;SDS011;52327;42.622;23.316;2024-01-16T12:56:04;0.60;;;0.60;;
65636;SDS011;52327;42.622;23.316;2024-01-16T12:58:34;0.43;;;0.43;;
65636;SDS011;52327;42.622;23.316;2024-01-16T13:03:52;0.68;;;0.68;;
65636;SDS011;52327;42.622;23.316;2024-01-16T13:06:19;0.30;;;0.30;;
65636;SDS011;52327;42.622;23.316;2024-01-16T13:08:46;0.60;;;0.60;;
65636;SDS011;52327;42.622;23.316;2024-01-16T13:11:12;0.70;;;0.68;;
65636;SDS011;52327;42.622;23.316;2024-01-16T13:13:40;0.50;;;0.50;;
65636;SDS011;52327;42.622;23.316;2024-01-16T13:16:06;0.47;;;0.47;;
65636;SDS011;52327;42.622;23.316;2024-01-16T13:18:32;0.80;;;0.80;;
65636;SDS011;52327;42.622;23.316;2024-01-16T13:20:59;0.20;;;0.20;;
65636;SDS011;52327;42.622;23.316;2024-01-16T13:23:26;0.43;;;0.43;;
65636;SDS011;52327;42.622;23.316;2024-01-16T13:25:52;1.10;;;1.00;;
65636;SDS011;52327;42.622;23.316;2024-01-16T13:28:24;0.50;;;0.50;;
65636;SDS011;52327;42.622;23.316;2024-01-16T13:30:50;0.50;;;0.50;;
65636;SDS011;52327;42.622;23.316;2024-01-16T13:33:15;1.95;;;0.55;;
65636;SDS011;52327;42.622;23.316;2024-01-16T13:35:42;1.20;;;1.15;;
65636;SDS011;52327;42.622;23.316;2024-01-16T13:38:09;1.60;;;0.82;;
65636;SDS011;52327;42.622;23.316;2024-01-16T13:40:36;0.63;;;0.63;;
65636;SDS011;52327;42.622;23.316;2024-01-16T13:43:05;1.53;;;1.00;;
65636;SDS011;52327;42.622;23.316;2024-01-16T13:45:34;1.23;;;1.13;;
65636;SDS011;52327;42.622;23.316;2024-01-16T13:48:01;2.97;;;2.05;;
65636;SDS011;52327;42.622;23.316;2024-01-16T13:50:27;1.02;;;0.77;;
65636;SDS011;52327;42.622;23.316;2024-01-16T13:52:52;0.50;;;0.50;;
65636;SDS011;52327;42.622;23.316;2024-01-16T13:55:21;4.70;;;1.92;;
65636;SDS011;52327;42.622;23.316;2024-01-16T13:57:46;0.98;;;0.80;;
65636;SDS011;52327;42.622;23.316;2024-01-16T14:00:12;1.13;;;0.65;;
65636;SDS011;52327;42.622;23.316;2024-01-16T14:02:40;5.72;;;1.38;;
65636;SDS011;52327;42.622;23.316;2024-01-16T14:05:13;0.98;;;0.98;;
65636;SDS011;52327;42.622;23.316;2024-01-16T14:07:46;0.60;;;0.60;;
65636;SDS011;52327;42.622;23.316;2024-01-16T14:10:17;0.88;;;0.88;;
65636;SDS011;52327;42.622;23.316;2024-01-16T14:12:47;2.47;;;1.58;;
65636;SDS011;52327;42.622;23.316;2024-01-16T14:15:14;2.05;;;1.27;;
65636;SDS011;52327;42.622;23.316;2024-01-16T14:20:14;0.77;;;0.77;;
65636;SDS011;52327;42.622;23.316;2024-01-16T14:22:40;0.65;;;0.65;;
65636;SDS011;52327;42.622;23.316;2024-01-16T14:25:10;1.80;;;1.65;;
65636;SDS011;52327;42.622;23.316;2024-01-16T14:27:37;1.15;;;0.98;;
65636;SDS011;52327;42.622;23.316;2024-01-16T14:30:04;0.82;;;0.82;;
65636;SDS011;52327;42.622;23.316;2024-01-16T14:32:32;1.05;;;0.98;;
65636;SDS011;52327;42.622;23.316;2024-01-16T14:34:58;2.40;;;1.60;;
65636;SDS011;52327;42.622;23.316;2024-01-16T14:37:23;0.98;;;0.90;;
65636;SDS011;52327;42.622;23.316;2024-01-16T14:39:49;0.50;;;0.50;;
65636;SDS011;52327;42.622;23.316;2024-01-16T14:42:14;1.63;;;1.52;;
65636;SDS011;52327;42.622;23.316;2024-01-16T14:44:39;0.93;;;0.82;;
65636;SDS011;52327;42.622;23.316;2024-01-16T14:47:05;0.85;;;0.85;;
65636;SDS011;52327;42.622;23.316;2024-01-16T14:49:30;3.72;;;1.58;;
65636;SDS011;52327;42.622;23.316;2024-01-16T14:51:57;4.32;;;2.30;;
65636;SDS011;52327;42.622;23.316;2024-01-16T14:54:24;7.03;;;1.63;;
65636;SDS011;52327;42.622;23.316;2024-01-16T14:56:49;1.27;;;1.17;;
65636;SDS011;52327;42.622;23.316;2024-01-16T14:59:15;1.70;;;1.58;;
65636;SDS011;52327;42.622;23.316;2024-01-16T15:01:40;0.90;;;0.73;;
65636;SDS011;52327;42.622;23.316;2024-01-16T15:04:06;1.60;;;1.50;;
65636;SDS011;52327;42.622;23.316;2024-01-16T15:06:32;2.47;;;1.67;;
65636;SDS011;52327;42.622;23.316;2024-01-16T15:08:59;1.23;;;0.90;;